Route Details

Aircraft Information
Group: European Fleet
Types: A30F, A31F, B738
Route Data
Distance: 517nm
Duration: 1h 30m
Origin METAR: EIDW 152330Z 33009KT 9999 FEW013 SCT018 BKN024 16/14 Q1008 NOSIG
Dest. METAR: EDDK 152320Z AUTO 13003KT 090V200 CAVOK 19/15 Q1007 NOSIG
Freight Data
(for Aug 16, 2022)
Load Factor:
41%
Manifested Cargo: 36,095lbs
Financial History
Total Freight: 90,353lbs
Average Load: 0lbs/flt
Fuel Used: 51,098lbs
Avg. Fuel Used: 0lbs/flt
Fuel Expense: $19,033
Avg. Fuel Expense: $0
Avg. Fuel Cost: $0/lbs
Total Gross Income: $184,536
Pilot Pay: $637
Total Expenses: $30,331
Total Revenue: $133,881
Average Revenue: $0

Capitol Logistics 534




EIDW
Dublin Airport
Dublin, IE
EDDK
Cologne Bonn Airport
Cologne, DE